Washington, Iowa
Current Conditions -  °F | °C
As of 1:35 AM on Thursday 23 Oct 2014 (Local Time) from KAWG Reporting Station
NA  
Wind Chill: 40°   Ceiling: NA
Heat Index: 45°   Visibility: NA
Dew Point: 41°   Wind: 8mph
Humidity: 87%   Direction: 150°SSE
Pressure: 30.15"   Gusts: NA
Location:  41.3°N, 91.69°W
Report Text: KAWG 230635Z AUTO 15007KT 07/05 A3015 RMK AO2
Loading
Personal Weather Stations






























Interactive Weather Map
Tropical Storm Tracking
New forecast layout! Learn more

10-Day Weather Forecast

Advertisements
Track Severe Weather on mobile